createdAt,value
2023-03-21T00:04:40.925Z,86.90
2023-03-21T00:09:46.819Z,87.58
2023-03-21T00:14:47.621Z,86.73
2023-03-21T00:19:51.179Z,87.00
2023-03-21T00:24:53.619Z,87.81
2023-03-21T00:29:54.614Z,88.01
2023-03-21T00:35:11.900Z,88.21
2023-03-21T00:40:27.820Z,87.79
2023-03-21T00:45:30.017Z,87.99
2023-03-21T00:50:32.401Z,88.02
2023-03-21T00:55:35.186Z,88.23
2023-03-21T01:00:37.479Z,87.48
2023-03-21T01:05:58.065Z,87.18
2023-03-21T01:11:04.176Z,87.75
2023-03-21T01:16:07.171Z,87.66
2023-03-21T01:21:13.401Z,87.63
2023-03-21T01:26:16.974Z,87.60
2023-03-21T01:31:18.971Z,87.39
2023-03-21T01:36:23.886Z,87.02
2023-03-21T01:41:46.990Z,87.11
2023-03-21T01:47:10.927Z,86.32
2023-03-21T01:52:38.025Z,86.10
2023-03-21T01:58:03.871Z,86.03
2023-03-21T02:03:16.919Z,85.85
2023-03-21T02:08:38.828Z,85.04
2023-03-21T02:13:45.842Z,84.90
2023-03-21T02:18:57.412Z,84.92
2023-03-21T02:24:23.005Z,84.13
2023-03-21T02:29:42.141Z,83.87
2023-03-21T02:35:04.066Z,83.75
2023-03-21T02:40:12.749Z,84.56
2023-03-21T02:45:19.668Z,84.68
2023-03-21T02:50:33.498Z,82.66
2023-03-21T02:55:38.531Z,82.39
2023-03-21T03:00:39.801Z,80.78
2023-03-21T03:05:44.727Z,79.60
2023-03-21T03:10:56.952Z,80.07
2023-03-21T03:16:12.033Z,80.53
2023-03-21T03:21:21.031Z,80.47
2023-03-21T03:26:27.499Z,81.19
2023-03-21T03:31:34.414Z,80.93
2023-03-21T03:36:40.449Z,81.28
2023-03-21T03:42:07.810Z,80.70
2023-03-21T03:47:32.237Z,81.65
2023-03-21T03:52:50.137Z,81.48
2023-03-21T03:57:57.902Z,81.88
2023-03-21T04:02:59.194Z,81.90
2023-03-21T04:08:00.661Z,81.94
2023-03-21T04:13:11.153Z,82.14
2023-03-21T04:18:18.998Z,82.65
2023-03-21T04:23:20.671Z,82.94
2023-03-21T04:28:24.477Z,82.23
2023-03-21T04:33:47.936Z,82.27
2023-03-21T04:38:49.164Z,82.34
2023-03-21T04:43:52.597Z,82.75
2023-03-21T04:48:54.295Z,82.48
2023-03-21T04:53:57.534Z,82.10
2023-03-21T04:59:00.862Z,82.10
2023-03-21T05:04:03.697Z,81.60
2023-03-21T05:09:07.100Z,81.19
2023-03-21T05:14:12.378Z,81.39
2023-03-21T05:19:13.987Z,82.19
2023-03-21T05:24:18.377Z,81.22
2023-03-21T05:29:21.782Z,81.88
2023-03-21T05:34:42.214Z,82.20
2023-03-21T05:39:43.607Z,81.27
2023-03-21T05:44:52.277Z,79.79
2023-03-21T05:49:58.619Z,79.53
2023-03-21T05:54:59.576Z,78.75
2023-03-21T06:00:03.780Z,78.86
2023-03-21T06:05:16.098Z,78.45
2023-03-21T06:10:17.363Z,78.52
2023-03-21T06:15:22.925Z,78.22
2023-03-21T06:20:32.033Z,78.38
2023-03-21T06:25:40.794Z,77.13
2023-03-21T06:30:43.180Z,76.57
2023-03-21T06:35:53.247Z,76.19
2023-03-21T06:40:54.211Z,76.61
2023-03-21T06:45:58.900Z,77.20
2023-03-21T06:51:00.585Z,77.86
2023-03-21T06:56:03.272Z,77.63
2023-03-21T07:01:08.213Z,77.20
2023-03-21T07:06:17.053Z,77.52
2023-03-21T07:11:18.325Z,75.79
2023-03-21T07:16:22.216Z,74.76
2023-03-21T07:21:23.482Z,73.84
2023-03-21T07:26:24.437Z,74.22
2023-03-21T07:31:27.982Z,74.85
2023-03-21T07:36:29.285Z,75.85
2023-03-21T07:41:29.954Z,76.64
2023-03-21T07:46:44.931Z,77.66
2023-03-21T07:51:45.618Z,76.92
2023-03-21T07:56:46.497Z,75.51
2023-03-21T08:01:48.537Z,74.72
2023-03-21T08:06:51.492Z,73.65
2023-03-21T08:11:52.216Z,72.76
2023-03-21T08:16:54.305Z,71.98
2023-03-21T08:21:55.150Z,70.10
2023-03-21T08:26:55.893Z,70.49
2023-03-21T08:31:58.227Z,70.90
2023-03-21T08:36:59.224Z,69.75
2023-03-21T08:41:59.979Z,68.04
2023-03-21T08:47:02.211Z,68.69
2023-03-21T08:52:03.163Z,68.29
2023-03-21T08:57:03.996Z,68.22
2023-03-21T09:02:06.118Z,66.20
2023-03-21T09:07:06.931Z,67.18
2023-03-21T09:12:07.852Z,65.57
2023-03-21T09:17:09.883Z,65.34
2023-03-21T09:22:14.295Z,66.03
2023-03-21T09:27:15.789Z,64.73
2023-03-21T09:32:18.644Z,65.08
2023-03-21T09:37:21.246Z,64.84
2023-03-21T09:42:34.671Z,64.91
2023-03-21T09:47:45.441Z,64.57
2023-03-21T09:52:50.701Z,63.75
2023-03-21T09:57:58.613Z,64.14
2023-03-21T10:03:06.858Z,62.57
2023-03-21T10:08:10.688Z,61.82
2023-03-21T10:13:16.348Z,61.48
2023-03-21T10:18:24.052Z,59.91
2023-03-21T10:23:29.719Z,59.13
2023-03-21T10:34:03.786Z,58.80
2023-03-21T10:39:14.124Z,59.10
2023-03-21T10:44:17.411Z,59.34
2023-03-21T10:49:21.602Z,56.95
2023-03-21T10:54:27.846Z,55.68
2023-03-21T10:59:36.756Z,56.46
2023-03-21T11:04:39.725Z,55.56
2023-03-21T11:09:50.025Z,55.67
2023-03-21T11:14:52.173Z,56.11
2023-03-21T11:19:58.404Z,56.49
2023-03-21T11:25:01.687Z,54.99
2023-03-21T11:30:05.255Z,55.17
2023-03-21T11:35:15.142Z,55.75
2023-03-21T11:40:25.711Z,54.03
2023-03-21T11:45:29.093Z,54.55
2023-03-21T11:50:35.421Z,53.41
2023-03-21T11:55:47.337Z,52.71
2023-03-21T12:00:57.217Z,53.09
2023-03-21T12:06:02.672Z,52.52
2023-03-21T12:11:11.926Z,54.09
2023-03-21T12:16:27.778Z,53.09
2023-03-21T12:21:35.901Z,53.89
2023-03-21T12:26:44.322Z,53.91
2023-03-21T12:31:57.638Z,53.14
2023-03-21T12:37:14.681Z,53.80
2023-03-21T12:42:43.035Z,54.53
2023-03-21T12:47:48.761Z,54.43
2023-03-21T12:52:55.157Z,54.67
2023-03-21T12:58:03.245Z,55.31
2023-03-21T13:03:11.619Z,54.11
2023-03-21T13:08:21.020Z,52.92
2023-03-21T13:13:27.167Z,52.84
2023-03-21T13:18:36.738Z,52.82
2023-03-21T13:23:40.281Z,52.03
2023-03-21T13:28:43.193Z,51.38
2023-03-21T13:33:47.324Z,52.59
2023-03-21T13:38:53.116Z,51.82
2023-03-21T13:43:55.530Z,51.10
2023-03-21T13:48:59.927Z,51.32
2023-03-21T13:54:04.407Z,51.49
2023-03-21T13:59:10.851Z,50.78
2023-03-21T14:04:15.559Z,51.09
2023-03-21T14:09:23.716Z,51.34
2023-03-21T14:14:27.828Z,49.90
2023-03-21T14:19:33.094Z,50.75
2023-03-21T14:24:35.121Z,50.69
2023-03-21T14:29:36.672Z,52.21
2023-03-21T14:34:38.470Z,53.75
2023-03-21T14:39:40.504Z,54.95
2023-03-21T14:44:57.847Z,55.70
2023-03-21T14:50:00.975Z,56.00
2023-03-21T14:55:06.400Z,56.44
2023-03-21T15:00:12.550Z,56.50
2023-03-21T15:05:19.784Z,58.00
2023-03-21T15:10:22.171Z,58.33
2023-03-21T15:15:27.580Z,57.28
2023-03-21T15:20:32.827Z,57.19
2023-03-21T15:25:37.230Z,56.95
2023-03-21T15:30:38.220Z,57.40
2023-03-21T15:35:41.696Z,58.05
2023-03-21T15:40:44.726Z,58.01
2023-03-21T15:45:49.870Z,58.41
2023-03-21T15:50:57.011Z,58.81
2023-03-21T15:56:01.999Z,59.65
2023-03-21T16:01:07.161Z,59.85
2023-03-21T16:06:18.900Z,58.49
2023-03-21T16:11:26.076Z,57.95
2023-03-21T16:16:28.485Z,57.71
2023-03-21T16:21:31.117Z,58.68
2023-03-21T16:26:34.483Z,59.86
2023-03-21T16:31:37.252Z,60.31
2023-03-21T16:36:40.335Z,60.99
2023-03-21T16:41:42.353Z,61.71
2023-03-21T16:46:43.012Z,62.45
2023-03-21T16:51:43.770Z,63.00
2023-03-21T16:56:47.916Z,63.61
2023-03-21T17:01:49.081Z,64.27
2023-03-21T17:06:51.829Z,64.74
2023-03-21T17:11:53.879Z,65.75
2023-03-21T17:16:55.172Z,65.71
2023-03-21T17:21:56.212Z,66.05
2023-03-21T17:26:58.586Z,66.45
2023-03-21T17:31:59.333Z,67.30
2023-03-21T17:37:00.395Z,67.12
2023-03-21T17:42:02.405Z,67.47
2023-03-21T17:47:03.088Z,67.74
2023-03-21T17:52:04.091Z,68.38
2023-03-21T17:57:06.149Z,68.33
2023-03-21T18:02:07.053Z,68.70
2023-03-21T18:07:16.161Z,68.63
2023-03-21T18:12:22.968Z,68.58
2023-03-21T18:17:23.684Z,69.30
2023-03-21T18:22:24.644Z,69.40
2023-03-21T18:27:27.035Z,69.03
2023-03-21T18:32:30.265Z,69.82
2023-03-21T18:37:31.810Z,69.81
2023-03-21T18:42:33.867Z,69.52
2023-03-21T18:47:34.974Z,69.40
2023-03-21T18:52:36.168Z,69.38
2023-03-21T18:57:39.255Z,68.79
2023-03-21T19:02:45.555Z,69.40
2023-03-21T19:07:48.169Z,69.35
2023-03-21T19:12:51.756Z,69.82
2023-03-21T19:23:17.248Z,70.49
2023-03-21T19:28:19.719Z,71.61
2023-03-21T19:33:21.042Z,71.52
2023-03-21T19:38:21.734Z,71.73
2023-03-21T19:43:32.860Z,71.59
2023-03-21T19:48:34.186Z,73.91
2023-03-21T19:53:34.950Z,72.61
2023-03-21T19:58:37.124Z,71.59
2023-03-21T20:03:38.041Z,69.88
2023-03-21T20:09:05.786Z,70.81
2023-03-21T20:14:03.041Z,70.56
2023-03-21T20:19:06.667Z,71.49
2023-03-21T20:24:08.586Z,71.77
2023-03-21T20:30:03.818Z,71.84
2023-03-21T20:34:32.038Z,72.02
2023-03-21T20:39:32.731Z,72.01
2023-03-21T20:44:52.328Z,72.81
2023-03-21T20:49:56.767Z,72.62
2023-03-21T20:54:58.331Z,72.15
2023-03-21T21:00:00.539Z,71.76
2023-03-21T21:05:24.562Z,71.59
2023-03-21T21:10:23.135Z,72.16
2023-03-21T21:15:25.224Z,71.46
2023-03-21T21:20:26.719Z,72.33
2023-03-21T21:25:30.387Z,72.82
2023-03-21T21:30:34.327Z,72.40
2023-03-21T21:35:35.917Z,71.96
2023-03-21T21:40:37.399Z,72.72
2023-03-21T21:45:40.043Z,72.20
2023-03-21T21:50:42.299Z,70.43
2023-03-21T21:55:43.032Z,70.16
2023-03-21T22:00:45.963Z,69.40
2023-03-21T22:05:46.706Z,69.14
2023-03-21T22:10:47.629Z,68.75
2023-03-21T22:15:49.625Z,69.56
2023-03-21T22:20:50.508Z,71.67
2023-03-21T22:25:52.307Z,74.67
2023-03-21T22:30:54.611Z,76.93
2023-03-21T22:35:55.280Z,79.28
2023-03-21T22:40:56.292Z,80.42
2023-03-21T22:45:58.314Z,81.88
2023-03-21T22:50:59.637Z,83.93
2023-03-21T22:56:00.448Z,84.60
2023-03-21T23:01:05.193Z,85.64
2023-03-21T23:06:06.223Z,85.61
2023-03-21T23:11:07.885Z,86.12
2023-03-21T23:16:10.453Z,87.41
2023-03-21T23:21:13.842Z,87.07
2023-03-21T23:26:14.562Z,87.73
2023-03-21T23:31:19.728Z,88.07
2023-03-21T23:36:21.802Z,88.33
2023-03-21T23:41:24.532Z,88.02
2023-03-21T23:46:26.544Z,88.60
2023-03-21T23:51:27.213Z,88.89
2023-03-21T23:56:28.268Z,89.03
